sensor_id;sensor_type;location;lat;lon;timestamp;temperature;humidity
80426;DHT22;69766;51.476;5.704;2023-06-22T00:00:56;18.50;87.50
80426;DHT22;69766;51.476;5.704;2023-06-22T00:03:23;18.40;88.10
80426;DHT22;69766;51.476;5.704;2023-06-22T00:05:50;18.40;87.80
80426;DHT22;69766;51.476;5.704;2023-06-22T00:08:17;18.50;87.90
80426;DHT22;69766;51.476;5.704;2023-06-22T00:10:44;18.40;88.70
80426;DHT22;69766;51.476;5.704;2023-06-22T00:13:10;18.30;88.90
80426;DHT22;69766;51.476;5.704;2023-06-22T00:15:38;18.20;89.70
80426;DHT22;69766;51.476;5.704;2023-06-22T00:18:05;18.20;90.00
80426;DHT22;69766;51.476;5.704;2023-06-22T00:20:31;18.10;90.00
80426;DHT22;69766;51.476;5.704;2023-06-22T00:22:59;18.10;90.40
80426;DHT22;69766;51.476;5.704;2023-06-22T00:25:25;18.10;90.60
80426;DHT22;69766;51.476;5.704;2023-06-22T00:27:51;18.10;90.50
80426;DHT22;69766;51.476;5.704;2023-06-22T00:30:17;18.10;90.80
80426;DHT22;69766;51.476;5.704;2023-06-22T00:32:44;18.00;91.00
80426;DHT22;69766;51.476;5.704;2023-06-22T00:35:10;17.90;91.40
80426;DHT22;69766;51.476;5.704;2023-06-22T00:37:36;17.90;91.40
80426;DHT22;69766;51.476;5.704;2023-06-22T00:40:02;17.90;91.60
80426;DHT22;69766;51.476;5.704;2023-06-22T00:42:30;18.00;91.70
80426;DHT22;69766;51.476;5.704;2023-06-22T00:44:56;18.00;91.90
80426;DHT22;69766;51.476;5.704;2023-06-22T00:47:22;18.00;92.20
80426;DHT22;69766;51.476;5.704;2023-06-22T00:49:49;17.90;91.90
80426;DHT22;69766;51.476;5.704;2023-06-22T00:52:20;17.90;91.90
80426;DHT22;69766;51.476;5.704;2023-06-22T00:54:51;17.90;92.20
80426;DHT22;69766;51.476;5.704;2023-06-22T00:57:17;17.80;92.90
80426;DHT22;69766;51.476;5.704;2023-06-22T00:59:44;17.90;92.70
80426;DHT22;69766;51.476;5.704;2023-06-22T01:02:10;17.80;92.80
80426;DHT22;69766;51.476;5.704;2023-06-22T01:04:37;17.80;93.20
80426;DHT22;69766;51.476;5.704;2023-06-22T01:09:59;17.70;93.70
80426;DHT22;69766;51.476;5.704;2023-06-22T01:12:30;17.70;93.70
80426;DHT22;69766;51.476;5.704;2023-06-22T01:15:08;17.70;93.90
80426;DHT22;69766;51.476;5.704;2023-06-22T01:17:36;17.80;93.80
80426;DHT22;69766;51.476;5.704;2023-06-22T01:20:06;17.70;94.00
80426;DHT22;69766;51.476;5.704;2023-06-22T01:25:56;17.80;94.50
80426;DHT22;69766;51.476;5.704;2023-06-22T01:31:08;17.70;94.20
80426;DHT22;69766;51.476;5.704;2023-06-22T01:33:37;17.80;94.40
80426;DHT22;69766;51.476;5.704;2023-06-22T01:36:03;17.70;94.50
80426;DHT22;69766;51.476;5.704;2023-06-22T01:38:30;17.70;94.40
80426;DHT22;69766;51.476;5.704;2023-06-22T01:40:57;17.70;94.40
80426;DHT22;69766;51.476;5.704;2023-06-22T01:43:26;17.70;94.90
80426;DHT22;69766;51.476;5.704;2023-06-22T01:45:52;17.80;94.80
80426;DHT22;69766;51.476;5.704;2023-06-22T01:48:19;17.70;94.80
80426;DHT22;69766;51.476;5.704;2023-06-22T01:50:45;17.70;94.80
80426;DHT22;69766;51.476;5.704;2023-06-22T01:53:11;17.80;94.80
80426;DHT22;69766;51.476;5.704;2023-06-22T01:55:37;17.80;95.20
80426;DHT22;69766;51.476;5.704;2023-06-22T01:58:02;17.70;94.90
80426;DHT22;69766;51.476;5.704;2023-06-22T02:00:31;17.70;95.10
80426;DHT22;69766;51.476;5.704;2023-06-22T02:03:05;17.60;95.40
80426;DHT22;69766;51.476;5.704;2023-06-22T02:05:47;17.60;95.40
80426;DHT22;69766;51.476;5.704;2023-06-22T02:08:24;17.60;95.30
80426;DHT22;69766;51.476;5.704;2023-06-22T02:10:51;17.70;95.10
80426;DHT22;69766;51.476;5.704;2023-06-22T02:13:18;17.60;95.30
80426;DHT22;69766;51.476;5.704;2023-06-22T02:15:46;17.70;95.50
80426;DHT22;69766;51.476;5.704;2023-06-22T02:18:13;17.60;95.40
80426;DHT22;69766;51.476;5.704;2023-06-22T02:20:39;17.60;95.70
80426;DHT22;69766;51.476;5.704;2023-06-22T02:23:06;17.60;95.80
80426;DHT22;69766;51.476;5.704;2023-06-22T02:25:33;17.60;95.40
80426;DHT22;69766;51.476;5.704;2023-06-22T02:27:58;17.60;95.50
80426;DHT22;69766;51.476;5.704;2023-06-22T02:30:24;17.60;95.90
80426;DHT22;69766;51.476;5.704;2023-06-22T02:32:50;17.50;95.90
80426;DHT22;69766;51.476;5.704;2023-06-22T02:35:24;17.50;95.90
80426;DHT22;69766;51.476;5.704;2023-06-22T02:37:50;17.50;95.70
80426;DHT22;69766;51.476;5.704;2023-06-22T02:40:17;17.50;95.60
80426;DHT22;69766;51.476;5.704;2023-06-22T02:42:43;17.40;96.00
80426;DHT22;69766;51.476;5.704;2023-06-22T02:45:09;17.50;95.90
80426;DHT22;69766;51.476;5.704;2023-06-22T02:47:34;17.40;96.20
80426;DHT22;69766;51.476;5.704;2023-06-22T02:50:00;17.50;96.20
80426;DHT22;69766;51.476;5.704;2023-06-22T02:52:26;17.40;96.10
80426;DHT22;69766;51.476;5.704;2023-06-22T02:54:52;17.40;96.20
80426;DHT22;69766;51.476;5.704;2023-06-22T02:57:18;17.40;96.00
80426;DHT22;69766;51.476;5.704;2023-06-22T02:59:43;17.40;95.90
80426;DHT22;69766;51.476;5.704;2023-06-22T03:02:09;17.30;96.40
80426;DHT22;69766;51.476;5.704;2023-06-22T03:04:35;17.30;96.30
80426;DHT22;69766;51.476;5.704;2023-06-22T03:07:02;17.30;96.60
80426;DHT22;69766;51.476;5.704;2023-06-22T03:09:28;17.20;96.80
80426;DHT22;69766;51.476;5.704;2023-06-22T03:11:54;17.20;96.50
80426;DHT22;69766;51.476;5.704;2023-06-22T03:14:20;17.20;96.40
80426;DHT22;69766;51.476;5.704;2023-06-22T03:16:46;17.20;96.70
80426;DHT22;69766;51.476;5.704;2023-06-22T03:19:12;17.20;96.80
80426;DHT22;69766;51.476;5.704;2023-06-22T03:21:38;17.20;96.60
80426;DHT22;69766;51.476;5.704;2023-06-22T03:24:04;17.30;96.70
80426;DHT22;69766;51.476;5.704;2023-06-22T03:26:30;17.30;96.30
80426;DHT22;69766;51.476;5.704;2023-06-22T03:28:56;17.30;96.30
80426;DHT22;69766;51.476;5.704;2023-06-22T03:31:22;17.30;96.50
80426;DHT22;69766;51.476;5.704;2023-06-22T03:33:48;17.30;96.40
80426;DHT22;69766;51.476;5.704;2023-06-22T03:36:17;17.30;96.70
80426;DHT22;69766;51.476;5.704;2023-06-22T03:38:47;17.30;96.60
80426;DHT22;69766;51.476;5.704;2023-06-22T03:41:12;17.30;96.50
80426;DHT22;69766;51.476;5.704;2023-06-22T03:43:38;17.30;96.60
80426;DHT22;69766;51.476;5.704;2023-06-22T03:46:04;17.30;96.60
80426;DHT22;69766;51.476;5.704;2023-06-22T03:48:30;17.30;96.60
80426;DHT22;69766;51.476;5.704;2023-06-22T03:50:56;17.30;96.60
80426;DHT22;69766;51.476;5.704;2023-06-22T03:53:22;17.30;96.70
80426;DHT22;69766;51.476;5.704;2023-06-22T03:55:49;17.30;96.70
80426;DHT22;69766;51.476;5.704;2023-06-22T03:58:16;17.30;96.70
80426;DHT22;69766;51.476;5.704;2023-06-22T04:00:42;17.40;96.50
80426;DHT22;69766;51.476;5.704;2023-06-22T04:03:07;17.50;96.30
80426;DHT22;69766;51.476;5.704;2023-06-22T04:05:33;17.50;96.00
80426;DHT22;69766;51.476;5.704;2023-06-22T04:07:59;17.60;95.90
80426;DHT22;69766;51.476;5.704;2023-06-22T04:10:24;17.60;95.90
80426;DHT22;69766;51.476;5.704;2023-06-22T04:12:50;17.60;96.00
80426;DHT22;69766;51.476;5.704;2023-06-22T04:15:15;17.60;95.80
80426;DHT22;69766;51.476;5.704;2023-06-22T04:17:41;17.70;95.60
80426;DHT22;69766;51.476;5.704;2023-06-22T04:20:07;17.70;95.40
80426;DHT22;69766;51.476;5.704;2023-06-22T04:22:33;17.70;95.30
80426;DHT22;69766;51.476;5.704;2023-06-22T04:24:59;17.80;95.40
80426;DHT22;69766;51.476;5.704;2023-06-22T04:27:24;17.90;95.20
80426;DHT22;69766;51.476;5.704;2023-06-22T04:29:50;17.90;95.20
80426;DHT22;69766;51.476;5.704;2023-06-22T04:32:16;17.90;95.00
80426;DHT22;69766;51.476;5.704;2023-06-22T04:34:42;18.00;94.70
80426;DHT22;69766;51.476;5.704;2023-06-22T04:37:08;18.10;94.60
80426;DHT22;69766;51.476;5.704;2023-06-22T04:39:34;18.20;94.20
80426;DHT22;69766;51.476;5.704;2023-06-22T04:42:00;18.20;94.20
80426;DHT22;69766;51.476;5.704;2023-06-22T04:44:26;18.20;94.60
80426;DHT22;69766;51.476;5.704;2023-06-22T04:47:00;18.30;94.20
80426;DHT22;69766;51.476;5.704;2023-06-22T04:49:28;18.30;94.30
80426;DHT22;69766;51.476;5.704;2023-06-22T04:52:05;18.50;93.60
80426;DHT22;69766;51.476;5.704;2023-06-22T04:54:31;18.60;93.40
80426;DHT22;69766;51.476;5.704;2023-06-22T04:57:03;18.70;93.30
80426;DHT22;69766;51.476;5.704;2023-06-22T04:59:30;18.70;93.60
80426;DHT22;69766;51.476;5.704;2023-06-22T05:01:56;18.70;93.60
80426;DHT22;69766;51.476;5.704;2023-06-22T05:04:23;18.80;93.20
80426;DHT22;69766;51.476;5.704;2023-06-22T05:06:50;19.00;93.00
80426;DHT22;69766;51.476;5.704;2023-06-22T05:09:15;19.10;92.90
80426;DHT22;69766;51.476;5.704;2023-06-22T05:11:43;19.10;92.60
80426;DHT22;69766;51.476;5.704;2023-06-22T05:14:08;19.30;92.30
80426;DHT22;69766;51.476;5.704;2023-06-22T05:16:34;19.20;92.40
80426;DHT22;69766;51.476;5.704;2023-06-22T05:19:00;19.30;92.40
80426;DHT22;69766;51.476;5.704;2023-06-22T05:21:28;19.30;92.60
80426;DHT22;69766;51.476;5.704;2023-06-22T05:23:54;19.40;92.50
80426;DHT22;69766;51.476;5.704;2023-06-22T05:26:22;19.50;92.20
80426;DHT22;69766;51.476;5.704;2023-06-22T05:28:47;19.50;92.30
80426;DHT22;69766;51.476;5.704;2023-06-22T05:31:14;19.60;92.00
80426;DHT22;69766;51.476;5.704;2023-06-22T05:33:43;19.70;91.80
80426;DHT22;69766;51.476;5.704;2023-06-22T05:36:09;19.60;91.90
80426;DHT22;69766;51.476;5.704;2023-06-22T05:38:36;19.60;91.80
80426;DHT22;69766;51.476;5.704;2023-06-22T05:41:02;19.70;91.80
80426;DHT22;69766;51.476;5.704;2023-06-22T05:43:27;19.80;91.90
80426;DHT22;69766;51.476;5.704;2023-06-22T05:45:53;19.70;91.80
80426;DHT22;69766;51.476;5.704;2023-06-22T05:48:19;19.60;91.80
80426;DHT22;69766;51.476;5.704;2023-06-22T05:50:44;19.70;92.20
80426;DHT22;69766;51.476;5.704;2023-06-22T05:53:10;19.70;92.20
80426;DHT22;69766;51.476;5.704;2023-06-22T05:55:36;19.80;92.10
80426;DHT22;69766;51.476;5.704;2023-06-22T05:58:02;19.90;91.80
80426;DHT22;69766;51.476;5.704;2023-06-22T06:00:29;19.90;91.80
80426;DHT22;69766;51.476;5.704;2023-06-22T06:02:54;20.00;91.90
80426;DHT22;69766;51.476;5.704;2023-06-22T06:05:20;20.00;92.10
80426;DHT22;69766;51.476;5.704;2023-06-22T06:07:46;19.90;92.00
80426;DHT22;69766;51.476;5.704;2023-06-22T06:10:12;20.10;91.90
80426;DHT22;69766;51.476;5.704;2023-06-22T06:12:38;20.00;91.90
80426;DHT22;69766;51.476;5.704;2023-06-22T06:15:04;20.10;92.00
80426;DHT22;69766;51.476;5.704;2023-06-22T06:17:30;20.20;92.20
80426;DHT22;69766;51.476;5.704;2023-06-22T06:19:56;20.30;91.80
80426;DHT22;69766;51.476;5.704;2023-06-22T06:22:22;20.30;91.90
80426;DHT22;69766;51.476;5.704;2023-06-22T06:24:49;20.40;91.20
80426;DHT22;69766;51.476;5.704;2023-06-22T06:27:14;20.40;91.20
80426;DHT22;69766;51.476;5.704;2023-06-22T06:29:40;20.50;91.00
80426;DHT22;69766;51.476;5.704;2023-06-22T06:32:06;20.70;91.00
80426;DHT22;69766;51.476;5.704;2023-06-22T06:34:32;20.60;90.80
80426;DHT22;69766;51.476;5.704;2023-06-22T06:36:57;20.60;90.50
80426;DHT22;69766;51.476;5.704;2023-06-22T06:39:23;20.80;90.40
80426;DHT22;69766;51.476;5.704;2023-06-22T06:41:49;20.80;90.70
80426;DHT22;69766;51.476;5.704;2023-06-22T06:44:15;20.80;90.60
80426;DHT22;69766;51.476;5.704;2023-06-22T06:46:40;20.70;90.80
80426;DHT22;69766;51.476;5.704;2023-06-22T06:49:07;20.60;90.70
80426;DHT22;69766;51.476;5.704;2023-06-22T06:51:33;20.60;90.90
80426;DHT22;69766;51.476;5.704;2023-06-22T06:53:58;20.60;91.10
80426;DHT22;69766;51.476;5.704;2023-06-22T06:56:24;20.50;91.10
80426;DHT22;69766;51.476;5.704;2023-06-22T06:58:50;20.50;91.00
80426;DHT22;69766;51.476;5.704;2023-06-22T07:01:15;20.50;91.00
80426;DHT22;69766;51.476;5.704;2023-06-22T07:03:41;20.60;90.90
80426;DHT22;69766;51.476;5.704;2023-06-22T07:06:08;20.70;90.90
80426;DHT22;69766;51.476;5.704;2023-06-22T07:08:34;20.70;90.80
80426;DHT22;69766;51.476;5.704;2023-06-22T07:11:01;20.80;90.10
80426;DHT22;69766;51.476;5.704;2023-06-22T07:13:27;20.90;90.10
80426;DHT22;69766;51.476;5.704;2023-06-22T07:15:53;21.10;89.70
80426;DHT22;69766;51.476;5.704;2023-06-22T07:18:19;21.30;87.80
80426;DHT22;69766;51.476;5.704;2023-06-22T07:20:44;21.40;87.70
80426;DHT22;69766;51.476;5.704;2023-06-22T07:23:10;21.50;86.20
80426;DHT22;69766;51.476;5.704;2023-06-22T07:25:36;21.40;88.30
80426;DHT22;69766;51.476;5.704;2023-06-22T07:28:04;21.50;88.00
80426;DHT22;69766;51.476;5.704;2023-06-22T07:30:30;21.90;86.40
80426;DHT22;69766;51.476;5.704;2023-06-22T07:32:57;21.80;85.60
80426;DHT22;69766;51.476;5.704;2023-06-22T07:35:23;21.70;86.90
80426;DHT22;69766;51.476;5.704;2023-06-22T07:37:49;21.60;87.20
80426;DHT22;69766;51.476;5.704;2023-06-22T07:40:15;21.60;86.70
80426;DHT22;69766;51.476;5.704;2023-06-22T07:42:41;21.60;86.80
80426;DHT22;69766;51.476;5.704;2023-06-22T07:45:07;21.70;86.80
80426;DHT22;69766;51.476;5.704;2023-06-22T07:47:34;21.50;87.20
80426;DHT22;69766;51.476;5.704;2023-06-22T07:50:01;21.70;88.00
80426;DHT22;69766;51.476;5.704;2023-06-22T07:52:28;21.70;86.20
80426;DHT22;69766;51.476;5.704;2023-06-22T07:54:53;21.80;86.60
80426;DHT22;69766;51.476;5.704;2023-06-22T07:57:20;21.70;86.50
80426;DHT22;69766;51.476;5.704;2023-06-22T07:59:45;21.70;86.10
80426;DHT22;69766;51.476;5.704;2023-06-22T08:02:12;21.60;86.60
80426;DHT22;69766;51.476;5.704;2023-06-22T08:04:37;21.60;86.30
80426;DHT22;69766;51.476;5.704;2023-06-22T08:07:03;21.80;86.90
80426;DHT22;69766;51.476;5.704;2023-06-22T08:09:30;22.00;85.90
80426;DHT22;69766;51.476;5.704;2023-06-22T08:11:56;21.90;85.40
80426;DHT22;69766;51.476;5.704;2023-06-22T08:14:26;21.90;87.50
80426;DHT22;69766;51.476;5.704;2023-06-22T08:16:51;21.90;85.10
80426;DHT22;69766;51.476;5.704;2023-06-22T08:19:17;21.90;85.00
80426;DHT22;69766;51.476;5.704;2023-06-22T08:21:43;22.00;84.90
80426;DHT22;69766;51.476;5.704;2023-06-22T08:24:09;22.10;85.80
80426;DHT22;69766;51.476;5.704;2023-06-22T08:26:35;22.20;84.80
80426;DHT22;69766;51.476;5.704;2023-06-22T08:29:03;22.30;84.50
80426;DHT22;69766;51.476;5.704;2023-06-22T08:31:31;22.30;84.10
80426;DHT22;69766;51.476;5.704;2023-06-22T08:33:59;22.20;84.50
80426;DHT22;69766;51.476;5.704;2023-06-22T08:36:25;22.40;83.30
80426;DHT22;69766;51.476;5.704;2023-06-22T08:38:54;22.60;82.60
80426;DHT22;69766;51.476;5.704;2023-06-22T08:41:23;22.60;83.50
80426;DHT22;69766;51.476;5.704;2023-06-22T08:43:49;22.50;82.40
80426;DHT22;69766;51.476;5.704;2023-06-22T08:46:15;22.60;82.60
80426;DHT22;69766;51.476;5.704;2023-06-22T08:48:45;22.50;83.60
80426;DHT22;69766;51.476;5.704;2023-06-22T08:51:10;22.60;82.40
80426;DHT22;69766;51.476;5.704;2023-06-22T08:53:36;22.60;83.70
80426;DHT22;69766;51.476;5.704;2023-06-22T08:56:02;22.80;82.70
80426;DHT22;69766;51.476;5.704;2023-06-22T08:58:28;22.70;83.30
80426;DHT22;69766;51.476;5.704;2023-06-22T09:00:53;22.80;81.70
80426;DHT22;69766;51.476;5.704;2023-06-22T09:03:19;22.70;83.30
80426;DHT22;69766;51.476;5.704;2023-06-22T09:05:45;22.70;82.80
80426;DHT22;69766;51.476;5.704;2023-06-22T09:08:11;22.90;82.40
80426;DHT22;69766;51.476;5.704;2023-06-22T09:10:37;22.80;83.80
80426;DHT22;69766;51.476;5.704;2023-06-22T09:13:03;22.80;82.00
80426;DHT22;69766;51.476;5.704;2023-06-22T09:15:28;23.10;81.80
80426;DHT22;69766;51.476;5.704;2023-06-22T09:17:54;23.10;80.40
80426;DHT22;69766;51.476;5.704;2023-06-22T09:20:20;23.00;79.80
80426;DHT22;69766;51.476;5.704;2023-06-22T09:22:46;23.00;79.90
80426;DHT22;69766;51.476;5.704;2023-06-22T09:25:12;22.90;79.90
80426;DHT22;69766;51.476;5.704;2023-06-22T09:27:38;22.80;81.10
80426;DHT22;69766;51.476;5.704;2023-06-22T09:30:04;22.80;81.80
80426;DHT22;69766;51.476;5.704;2023-06-22T09:32:29;22.70;81.40
80426;DHT22;69766;51.476;5.704;2023-06-22T09:34:55;22.90;80.90
80426;DHT22;69766;51.476;5.704;2023-06-22T09:37:21;23.00;80.40
80426;DHT22;69766;51.476;5.704;2023-06-22T09:39:46;23.00;82.30
80426;DHT22;69766;51.476;5.704;2023-06-22T09:42:12;23.00;82.40
80426;DHT22;69766;51.476;5.704;2023-06-22T09:44:38;23.10;81.90
80426;DHT22;69766;51.476;5.704;2023-06-22T09:47:05;23.20;80.60
80426;DHT22;69766;51.476;5.704;2023-06-22T09:49:30;23.20;80.40
80426;DHT22;69766;51.476;5.704;2023-06-22T09:51:57;23.20;79.40
80426;DHT22;69766;51.476;5.704;2023-06-22T09:54:23;23.20;79.40
80426;DHT22;69766;51.476;5.704;2023-06-22T09:56:48;23.40;79.00
80426;DHT22;69766;51.476;5.704;2023-06-22T09:59:14;23.30;79.00
80426;DHT22;69766;51.476;5.704;2023-06-22T10:01:40;23.30;80.30
80426;DHT22;69766;51.476;5.704;2023-06-22T10:04:05;23.30;80.80
80426;DHT22;69766;51.476;5.704;2023-06-22T10:06:31;23.50;80.50
80426;DHT22;69766;51.476;5.704;2023-06-22T10:08:58;23.60;80.20
80426;DHT22;69766;51.476;5.704;2023-06-22T10:11:24;23.80;78.20
80426;DHT22;69766;51.476;5.704;2023-06-22T10:13:54;23.80;79.50
80426;DHT22;69766;51.476;5.704;2023-06-22T10:16:20;23.90;79.20
80426;DHT22;69766;51.476;5.704;2023-06-22T10:18:46;23.90;78.90
80426;DHT22;69766;51.476;5.704;2023-06-22T10:21:11;23.60;77.90
80426;DHT22;69766;51.476;5.704;2023-06-22T10:23:37;23.50;78.00
80426;DHT22;69766;51.476;5.704;2023-06-22T10:26:03;23.60;79.00
80426;DHT22;69766;51.476;5.704;2023-06-22T10:28:28;23.70;79.20
80426;DHT22;69766;51.476;5.704;2023-06-22T10:30:54;23.60;78.90
80426;DHT22;69766;51.476;5.704;2023-06-22T10:33:20;23.40;78.50
80426;DHT22;69766;51.476;5.704;2023-06-22T10:35:45;23.30;78.70
80426;DHT22;69766;51.476;5.704;2023-06-22T10:38:11;23.20;78.80
80426;DHT22;69766;51.476;5.704;2023-06-22T10:40:37;23.20;78.60
80426;DHT22;69766;51.476;5.704;2023-06-22T10:43:04;23.20;80.00
80426;DHT22;69766;51.476;5.704;2023-06-22T10:45:30;22.80;87.00
80426;DHT22;69766;51.476;5.704;2023-06-22T10:47:56;22.20;91.50
80426;DHT22;69766;51.476;5.704;2023-06-22T10:50:21;21.60;93.50
80426;DHT22;69766;51.476;5.704;2023-06-22T10:52:49;21.20;95.40
80426;DHT22;69766;51.476;5.704;2023-06-22T10:55:15;20.90;97.40
80426;DHT22;69766;51.476;5.704;2023-06-22T10:57:40;20.80;98.40
80426;DHT22;69766;51.476;5.704;2023-06-22T11:00:08;20.60;98.90
80426;DHT22;69766;51.476;5.704;2023-06-22T11:02:34;20.50;99.80
80426;DHT22;69766;51.476;5.704;2023-06-22T11:05:00;20.30;99.90
80426;DHT22;69766;51.476;5.704;2023-06-22T11:07:26;20.20;99.90
80426;DHT22;69766;51.476;5.704;2023-06-22T11:09:54;19.90;99.90
80426;DHT22;69766;51.476;5.704;2023-06-22T11:12:23;19.80;99.90
80426;DHT22;69766;51.476;5.704;2023-06-22T11:15:15;19.80;99.90
80426;DHT22;69766;51.476;5.704;2023-06-22T11:18:12;19.70;99.90
80426;DHT22;69766;51.476;5.704;2023-06-22T11:21:09;19.60;99.90
80426;DHT22;69766;51.476;5.704;2023-06-22T11:23:47;19.50;99.90
80426;DHT22;69766;51.476;5.704;2023-06-22T11:26:40;19.30;99.90
80426;DHT22;69766;51.476;5.704;2023-06-22T11:29:16;19.40;99.90
80426;DHT22;69766;51.476;5.704;2023-06-22T11:31:45;19.30;99.90
80426;DHT22;69766;51.476;5.704;2023-06-22T11:34:13;19.20;99.90
80426;DHT22;69766;51.476;5.704;2023-06-22T11:37:05;19.10;99.90
80426;DHT22;69766;51.476;5.704;2023-06-22T11:39:33;19.00;99.90
80426;DHT22;69766;51.476;5.704;2023-06-22T11:42:07;18.90;99.90
80426;DHT22;69766;51.476;5.704;2023-06-22T11:44:34;18.80;99.90
80426;DHT22;69766;51.476;5.704;2023-06-22T11:47:00;18.80;99.90
80426;DHT22;69766;51.476;5.704;2023-06-22T11:49:29;19.00;99.90
80426;DHT22;69766;51.476;5.704;2023-06-22T11:52:04;19.00;99.90
80426;DHT22;69766;51.476;5.704;2023-06-22T11:54:49;18.90;99.90
80426;DHT22;69766;51.476;5.704;2023-06-22T11:57:25;19.10;99.90
80426;DHT22;69766;51.476;5.704;2023-06-22T11:59:55;19.10;99.90
80426;DHT22;69766;51.476;5.704;2023-06-22T12:02:22;19.10;99.90
80426;DHT22;69766;51.476;5.704;2023-06-22T12:04:54;19.00;99.90
80426;DHT22;69766;51.476;5.704;2023-06-22T12:07:31;18.90;99.90
80426;DHT22;69766;51.476;5.704;2023-06-22T12:09:56;19.00;99.90
80426;DHT22;69766;51.476;5.704;2023-06-22T12:12:27;19.10;99.90
80426;DHT22;69766;51.476;5.704;2023-06-22T12:14:58;19.10;99.90
80426;DHT22;69766;51.476;5.704;2023-06-22T12:17:28;19.00;99.90
80426;DHT22;69766;51.476;5.704;2023-06-22T12:19:58;19.10;99.90
80426;DHT22;69766;51.476;5.704;2023-06-22T12:22:27;19.00;99.90
80426;DHT22;69766;51.476;5.704;2023-06-22T12:31:48;19.00;99.90
80426;DHT22;69766;51.476;5.704;2023-06-22T12:37:12;19.00;99.90
80426;DHT22;69766;51.476;5.704;2023-06-22T12:39:55;19.00;99.90
80426;DHT22;69766;51.476;5.704;2023-06-22T12:42:24;19.00;99.90
80426;DHT22;69766;51.476;5.704;2023-06-22T12:44:49;19.10;99.90
80426;DHT22;69766;51.476;5.704;2023-06-22T12:47:15;19.20;99.90
80426;DHT22;69766;51.476;5.704;2023-06-22T12:49:41;19.30;99.90
80426;DHT22;69766;51.476;5.704;2023-06-22T12:52:10;19.50;99.90
80426;DHT22;69766;51.476;5.704;2023-06-22T12:54:36;19.50;99.90
80426;DHT22;69766;51.476;5.704;2023-06-22T12:57:02;19.60;99.90
80426;DHT22;69766;51.476;5.704;2023-06-22T12:59:37;19.60;99.90
80426;DHT22;69766;51.476;5.704;2023-06-22T13:02:06;19.60;99.90
80426;DHT22;69766;51.476;5.704;2023-06-22T13:04:37;19.60;99.90
80426;DHT22;69766;51.476;5.704;2023-06-22T13:07:03;19.60;99.90
80426;DHT22;69766;51.476;5.704;2023-06-22T13:09:30;19.70;99.90
80426;DHT22;69766;51.476;5.704;2023-06-22T13:11:56;19.80;99.90
80426;DHT22;69766;51.476;5.704;2023-06-22T13:14:22;19.70;99.90
80426;DHT22;69766;51.476;5.704;2023-06-22T13:16:47;19.60;99.90
80426;DHT22;69766;51.476;5.704;2023-06-22T13:19:13;19.50;99.90
80426;DHT22;69766;51.476;5.704;2023-06-22T13:21:40;19.50;99.90
80426;DHT22;69766;51.476;5.704;2023-06-22T13:24:06;19.50;99.90
80426;DHT22;69766;51.476;5.704;2023-06-22T13:26:31;19.50;99.90
80426;DHT22;69766;51.476;5.704;2023-06-22T13:29:00;19.50;99.90
80426;DHT22;69766;51.476;5.704;2023-06-22T13:32:00;19.50;99.90
80426;DHT22;69766;51.476;5.704;2023-06-22T13:35:10;19.50;99.90
80426;DHT22;69766;51.476;5.704;2023-06-22T13:37:39;19.40;99.90
80426;DHT22;69766;51.476;5.704;2023-06-22T13:40:35;19.50;99.90
80426;DHT22;69766;51.476;5.704;2023-06-22T13:43:15;19.30;99.90
80426;DHT22;69766;51.476;5.704;2023-06-22T13:45:44;19.30;99.90
80426;DHT22;69766;51.476;5.704;2023-06-22T13:48:10;19.30;99.90
80426;DHT22;69766;51.476;5.704;2023-06-22T13:50:41;19.40;99.90
80426;DHT22;69766;51.476;5.704;2023-06-22T13:53:06;19.30;99.90
80426;DHT22;69766;51.476;5.704;2023-06-22T13:55:32;19.30;99.90
80426;DHT22;69766;51.476;5.704;2023-06-22T13:58:06;19.20;99.90
80426;DHT22;69766;51.476;5.704;2023-06-22T14:00:35;19.20;99.90
80426;DHT22;69766;51.476;5.704;2023-06-22T14:03:08;19.20;99.90
80426;DHT22;69766;51.476;5.704;2023-06-22T14:05:37;19.10;99.90
80426;DHT22;69766;51.476;5.704;2023-06-22T14:08:05;19.10;99.90
80426;DHT22;69766;51.476;5.704;2023-06-22T14:10:31;19.10;99.90
80426;DHT22;69766;51.476;5.704;2023-06-22T14:12:56;19.00;99.90
80426;DHT22;69766;51.476;5.704;2023-06-22T14:15:22;18.90;99.90
80426;DHT22;69766;51.476;5.704;2023-06-22T14:17:48;18.90;99.90
80426;DHT22;69766;51.476;5.704;2023-06-22T14:20:14;18.80;99.90
80426;DHT22;69766;51.476;5.704;2023-06-22T14:22:42;18.70;99.90
80426;DHT22;69766;51.476;5.704;2023-06-22T14:25:11;18.70;99.90
80426;DHT22;69766;51.476;5.704;2023-06-22T14:27:40;18.70;99.90
80426;DHT22;69766;51.476;5.704;2023-06-22T14:30:08;18.60;99.90
80426;DHT22;69766;51.476;5.704;2023-06-22T14:32:41;18.70;99.90
80426;DHT22;69766;51.476;5.704;2023-06-22T14:35:11;18.60;99.90
80426;DHT22;69766;51.476;5.704;2023-06-22T14:37:54;18.50;99.90
80426;DHT22;69766;51.476;5.704;2023-06-22T14:40:38;18.50;99.90
80426;DHT22;69766;51.476;5.704;2023-06-22T14:43:13;18.40;99.90
80426;DHT22;69766;51.476;5.704;2023-06-22T14:45:42;18.20;99.90
80426;DHT22;69766;51.476;5.704;2023-06-22T14:48:32;18.20;99.90
80426;DHT22;69766;51.476;5.704;2023-06-22T14:51:02;18.10;99.90
80426;DHT22;69766;51.476;5.704;2023-06-22T14:53:31;18.10;99.90
80426;DHT22;69766;51.476;5.704;2023-06-22T14:55:57;18.10;99.90
80426;DHT22;69766;51.476;5.704;2023-06-22T14:58:34;18.10;99.90
80426;DHT22;69766;51.476;5.704;2023-06-22T15:01:29;18.10;99.90
80426;DHT22;69766;51.476;5.704;2023-06-22T15:04:03;18.10;99.90
80426;DHT22;69766;51.476;5.704;2023-06-22T15:06:29;18.00;99.90
80426;DHT22;69766;51.476;5.704;2023-06-22T15:08:55;18.00;99.90
80426;DHT22;69766;51.476;5.704;2023-06-22T15:11:20;17.90;99.90
80426;DHT22;69766;51.476;5.704;2023-06-22T15:13:46;18.00;99.90
80426;DHT22;69766;51.476;5.704;2023-06-22T15:16:12;18.00;99.90
80426;DHT22;69766;51.476;5.704;2023-06-22T15:18:41;18.00;99.90
80426;DHT22;69766;51.476;5.704;2023-06-22T15:21:07;18.00;99.90
80426;DHT22;69766;51.476;5.704;2023-06-22T15:23:36;17.90;99.90
80426;DHT22;69766;51.476;5.704;2023-06-22T15:26:03;18.00;99.90
80426;DHT22;69766;51.476;5.704;2023-06-22T15:28:31;18.00;99.90
80426;DHT22;69766;51.476;5.704;2023-06-22T15:30:58;18.00;99.90
80426;DHT22;69766;51.476;5.704;2023-06-22T15:33:25;18.00;99.90
80426;DHT22;69766;51.476;5.704;2023-06-22T15:35:50;18.00;99.90
80426;DHT22;69766;51.476;5.704;2023-06-22T15:38:18;18.00;99.90
80426;DHT22;69766;51.476;5.704;2023-06-22T15:40:44;18.10;99.90
80426;DHT22;69766;51.476;5.704;2023-06-22T15:43:13;18.10;99.90
80426;DHT22;69766;51.476;5.704;2023-06-22T15:45:39;18.10;99.90
80426;DHT22;69766;51.476;5.704;2023-06-22T15:48:05;18.10;99.90
80426;DHT22;69766;51.476;5.704;2023-06-22T15:50:31;18.10;99.90
80426;DHT22;69766;51.476;5.704;2023-06-22T15:52:57;18.20;99.90